Austin, UT

11:22 PM MDT on July 03, 2015 (GMT -0600)
Putter Butt Farms | | Change Station
CLOSE
Current Station
Personal Weather Station
Location: Monroe, UT
Elevation: 5322 ft
Nearby Weather Stations

Elev 5322 ft 38.65 °N, 112.14 °W | Updated 1 minute ago

Partly Cloudy
Partly Cloudy
74.7 °F
Feels Like 77 °F
N
0.0
Wind Variable Wind from WNW
Gusts 0.0 mph

Today
High -- | Low -- °F
--% Chance of Precip.
Yesterday
High -- | Low -- °F
Precip. -- in
6:08 AM 8:56 PM
Waning Gibbous, 94% visible
Pressure 29.77 in
Visibility 10.0 miles
Clouds Clear
Heat Index 77 °F
Dew Point 40 °F
Humidity 29%
Rainfall 0.00 in
Snow Depth Not available.
UV 0.0 out of 12
Pollen 6.10 out of 12
Air Quality Not available.
Flu Activity Not available.
METAR KMLF 040452Z AUTO 13005KT 10SM CLR 27/06 A3000 RMK AO2 SLP081 T02670056

More Conditions Fewer Conditions

Pressure 29.77 in
Visibility 10.0 miles
Clouds Clear
Heat Index 77 °F
Dew Point 40 °F
Humidity 29%
Rainfall 0.00 in
Snow Depth Not available.
UV 0.0 out of 12
Pollen 6.10 out of 12
Air Quality Not available.
Flu Activity Not available.
METAR KMLF 040452Z AUTO 13005KT 10SM CLR 27/06 A3000 RMK AO2 SLP081 T02670056

More Conditions Fewer Conditions

10-Day Weather Forecast

×

Almanac

Astronomy

Jul. 03, 2015 Rise Set
Actual Time
Civil Twilight
Nautical Twilight
Astronomical Twilight
Moon
Length of Visible Light
Length of Day
Tomorrow will be .
, % of the Moon is Illuminated

Today's Extremes

State Highs State Lows

Community

WunderPhotos

Upload Photos

1,834,922 photos uploaded!

WunderBlogs® & News

Nearby

Air Quality

  Air Quality AQ Index Pollutant
Not available.

Snow Depth

Station Depth Elevation

Earthquake Activity

City Distance Mag. Time & Date
Minimum magnitude displayed is 2.5.

Coastal Water Temperatures

Place Temperature

Stations

Nearby Weather Stations

Station Location Temp. Windchill Dew Point Humidity Wind Precip. Elev Updated Type